createdAt,value
2018-06-10T00:00:17.712Z,4.10
2018-06-10T00:02:49.037Z,3.07
2018-06-10T00:05:20.249Z,2.90
2018-06-10T00:07:51.499Z,3.50
2018-06-10T00:10:23.660Z,3.97
2018-06-10T00:12:54.948Z,3.90
2018-06-10T00:15:26.193Z,2.60
2018-06-10T00:17:57.801Z,4.63
2018-06-10T00:20:29.202Z,4.33
2018-06-10T00:23:00.344Z,3.67
2018-06-10T00:25:31.506Z,2.27
2018-06-10T00:28:02.845Z,2.13
2018-06-10T00:30:34.102Z,3.17
2018-06-10T00:33:05.298Z,2.40
2018-06-10T00:35:36.528Z,1.37
2018-06-10T00:38:07.787Z,2.53
2018-06-10T00:40:38.872Z,1.87
2018-06-10T00:43:10.329Z,2.17
2018-06-10T00:45:51.324Z,2.57
2018-06-10T00:48:23.361Z,2.50
2018-06-10T00:50:54.484Z,3.93
2018-06-10T00:53:25.877Z,2.67
2018-06-10T00:55:57.208Z,2.23
2018-06-10T00:58:28.416Z,1.30
2018-06-10T01:00:59.408Z,3.00
2018-06-10T01:03:30.601Z,3.80
2018-06-10T01:06:01.806Z,2.93
2018-06-10T01:08:33.355Z,1.10
2018-06-10T01:11:04.857Z,2.17
2018-06-10T01:13:35.962Z,3.67
2018-06-10T01:16:07.349Z,1.73
2018-06-10T01:18:38.800Z,1.93
2018-06-10T01:21:09.925Z,1.30
2018-06-10T01:23:41.130Z,2.43
2018-06-10T01:26:17.609Z,1.97
2018-06-10T01:28:48.603Z,2.23
2018-06-10T01:31:19.931Z,2.47
2018-06-10T01:33:51.207Z,1.70
2018-06-10T01:36:22.580Z,1.77
2018-06-10T01:38:53.828Z,2.30
2018-06-10T01:41:24.987Z,4.07
2018-06-10T01:43:56.320Z,3.27
2018-06-10T01:46:27.531Z,2.47
2018-06-10T01:48:58.782Z,2.47
2018-06-10T01:51:30.251Z,2.13
2018-06-10T01:54:01.519Z,1.73
2018-06-10T01:56:32.870Z,2.53
2018-06-10T01:59:03.874Z,1.93
2018-06-10T02:01:35.048Z,2.43
2018-06-10T02:04:06.262Z,2.23
2018-06-10T02:06:37.836Z,1.40
2018-06-10T02:09:09.064Z,3.27
2018-06-10T02:11:40.218Z,2.00
2018-06-10T02:14:11.232Z,4.20
2018-06-10T02:16:42.401Z,2.70
2018-06-10T02:19:13.591Z,1.83
2018-06-10T02:21:44.836Z,1.83
2018-06-10T02:24:16.188Z,2.27
2018-06-10T02:26:47.190Z,3.27
2018-06-10T02:29:18.567Z,3.97
2018-06-10T02:31:49.758Z,3.97
2018-06-10T02:34:20.760Z,3.97
2018-06-10T02:36:51.956Z,2.43
2018-06-10T02:39:23.344Z,2.27
2018-06-10T02:41:54.708Z,3.73
2018-06-10T02:44:25.776Z,4.03
2018-06-10T02:46:56.932Z,3.00
2018-06-10T02:49:28.281Z,2.10
2018-06-10T02:51:59.547Z,2.03
2018-06-10T02:54:30.854Z,3.00
2018-06-10T02:57:02.100Z,2.03
2018-06-10T02:59:33.439Z,2.83
2018-06-10T03:02:04.466Z,3.73
2018-06-10T03:04:35.833Z,1.70
2018-06-10T03:07:07.419Z,1.83
2018-06-10T03:09:39.280Z,2.37
2018-06-10T03:12:10.577Z,2.00
2018-06-10T03:14:41.785Z,3.97
2018-06-10T03:17:12.779Z,3.30
2018-06-10T03:19:43.980Z,3.80
2018-06-10T03:22:15.156Z,3.70
2018-06-10T03:24:46.161Z,5.53
2018-06-10T03:27:17.701Z,2.30
2018-06-10T03:29:48.710Z,2.70
2018-06-10T03:32:19.940Z,3.30
2018-06-10T03:34:51.288Z,2.90
2018-06-10T03:37:22.501Z,4.10
2018-06-10T03:39:53.493Z,3.00
2018-06-10T03:42:24.671Z,4.07
2018-06-10T03:44:55.685Z,3.87
2018-06-10T03:47:27.039Z,4.53
2018-06-10T03:49:58.737Z,3.70
2018-06-10T03:52:30.325Z,3.73
2018-06-10T03:55:01.621Z,2.73
2018-06-10T03:57:32.762Z,3.27
2018-06-10T04:00:03.881Z,3.60
2018-06-10T04:02:35.025Z,3.07
2018-06-10T04:05:06.421Z,2.40
2018-06-10T04:07:37.804Z,5.50
2018-06-10T04:10:08.965Z,2.83
2018-06-10T04:12:39.993Z,2.33
2018-06-10T04:15:11.155Z,3.23
2018-06-10T04:17:42.332Z,4.57
2018-06-10T04:20:13.528Z,6.03
2018-06-10T04:22:44.586Z,2.60
2018-06-10T04:25:16.191Z,3.33
2018-06-10T04:27:47.342Z,3.87
2018-06-10T04:30:18.719Z,3.13
2018-06-10T04:32:49.884Z,5.03
2018-06-10T04:35:21.282Z,4.23
2018-06-10T04:37:52.271Z,4.83
2018-06-10T04:40:23.469Z,5.30
2018-06-10T04:42:54.652Z,2.50
2018-06-10T04:45:25.636Z,5.63
2018-06-10T04:47:56.902Z,2.87
2018-06-10T04:50:28.012Z,4.53
2018-06-10T04:52:59.041Z,2.93
2018-06-10T04:55:30.882Z,4.83
2018-06-10T04:58:02.236Z,5.07
2018-06-10T05:00:33.404Z,4.00
2018-06-10T05:03:04.788Z,3.80
2018-06-10T05:05:35.989Z,3.10
2018-06-10T05:08:07.169Z,4.50
2018-06-10T05:10:38.380Z,2.47
2018-06-10T05:13:09.525Z,4.13
2018-06-10T05:15:41.376Z,3.90
2018-06-10T05:18:12.780Z,4.87
2018-06-10T05:20:43.913Z,3.87
2018-06-10T05:23:15.109Z,2.80
2018-06-10T05:30:34.519Z,5.23
2018-06-10T05:33:05.837Z,5.00
2018-06-10T05:35:37.583Z,2.17
2018-06-10T05:38:08.868Z,4.53
2018-06-10T05:40:39.881Z,5.97
2018-06-10T05:43:11.264Z,3.87
2018-06-10T05:45:42.465Z,3.27
2018-06-10T05:48:13.860Z,5.23
2018-06-10T05:50:45.275Z,4.43
2018-06-10T05:53:16.422Z,5.23
2018-06-10T05:55:48.119Z,3.40
2018-06-10T05:58:19.217Z,4.40
2018-06-10T06:00:50.614Z,4.23
2018-06-10T06:03:21.953Z,4.93
2018-06-10T06:05:53.003Z,4.67
2018-06-10T06:08:24.395Z,4.77
2018-06-10T06:10:55.540Z,4.43
2018-06-10T06:13:27.056Z,4.30
2018-06-10T06:15:58.298Z,4.07
2018-06-10T06:18:29.508Z,3.33
2018-06-10T06:21:00.499Z,4.70
2018-06-10T06:23:31.499Z,3.03
2018-06-10T06:26:02.695Z,2.90
2018-06-10T06:28:34.083Z,3.20
2018-06-10T06:31:05.465Z,5.83
2018-06-10T06:33:36.827Z,4.40
2018-06-10T06:36:07.873Z,4.03
2018-06-10T06:38:39.748Z,3.07
2018-06-10T06:41:11.791Z,4.37
2018-06-10T06:43:43.007Z,4.10
2018-06-10T06:46:14.757Z,4.83
2018-06-10T06:48:45.756Z,7.83
2018-06-10T06:51:16.944Z,4.80
2018-06-10T06:53:48.115Z,4.70
2018-06-10T06:56:19.316Z,5.87
2018-06-10T06:58:50.512Z,3.90
2018-06-10T07:01:21.529Z,3.47
2018-06-10T07:03:52.811Z,5.27
2018-06-10T07:06:24.096Z,3.70
2018-06-10T07:08:55.151Z,4.97
2018-06-10T07:11:26.468Z,3.97
2018-06-10T07:13:57.484Z,5.93
2018-06-10T07:16:29.450Z,2.70
2018-06-10T07:19:00.656Z,4.17
2018-06-10T07:21:31.836Z,5.30
2018-06-10T07:24:03.256Z,8.57
2018-06-10T07:26:34.603Z,5.80
2018-06-10T07:29:05.831Z,4.70
2018-06-10T07:31:37.668Z,4.83
2018-06-10T07:34:09.161Z,8.80
2018-06-10T07:36:40.403Z,5.63
2018-06-10T07:39:11.753Z,10.17
2018-06-10T07:41:42.907Z,13.83
2018-06-10T07:44:13.947Z,10.17
2018-06-10T07:46:45.328Z,8.90
2018-06-10T07:49:16.984Z,8.80
2018-06-10T07:51:48.257Z,8.07
2018-06-10T07:54:19.684Z,11.90
2018-06-10T07:56:51.096Z,6.00
2018-06-10T07:59:22.450Z,5.07
2018-06-10T08:01:53.842Z,6.93
2018-06-10T08:04:25.161Z,8.10
2018-06-10T08:06:56.453Z,6.73
2018-06-10T08:09:27.799Z,6.17
2018-06-10T08:11:59.040Z,5.93
2018-06-10T08:14:30.397Z,5.30
2018-06-10T08:17:01.385Z,5.53
2018-06-10T08:19:32.565Z,5.27
2018-06-10T08:22:04.015Z,5.37
2018-06-10T08:24:35.159Z,4.63
2018-06-10T08:27:06.682Z,8.47
2018-06-10T08:29:38.188Z,5.53
2018-06-10T08:32:09.516Z,6.17
2018-06-10T08:34:40.504Z,4.50
2018-06-10T08:37:12.078Z,4.77
2018-06-10T08:39:43.256Z,3.87
2018-06-10T08:42:16.386Z,3.43
2018-06-10T08:44:47.640Z,4.57
2018-06-10T08:47:18.654Z,2.87
2018-06-10T08:49:49.996Z,4.23
2018-06-10T08:52:21.383Z,2.73
2018-06-10T08:54:52.580Z,5.13
2018-06-10T08:57:23.780Z,2.60
2018-06-10T08:59:54.984Z,3.40
2018-06-10T09:02:26.393Z,3.60
2018-06-10T09:04:58.052Z,3.53
2018-06-10T09:07:29.528Z,5.03
2018-06-10T09:10:00.693Z,2.97
2018-06-10T09:12:31.925Z,3.30
2018-06-10T09:15:03.301Z,2.60
2018-06-10T09:17:34.516Z,4.00
2018-06-10T09:20:05.765Z,6.33
2018-06-10T09:22:37.228Z,2.43
2018-06-10T09:25:08.669Z,3.37
2018-06-10T09:27:40.023Z,4.67
2018-06-10T09:30:11.240Z,3.40
2018-06-10T09:32:43.089Z,2.40
2018-06-10T09:35:14.425Z,3.33
2018-06-10T09:37:45.431Z,2.80
2018-06-10T09:40:16.623Z,4.10
2018-06-10T09:42:47.981Z,2.60
2018-06-10T09:45:19.639Z,2.37
2018-06-10T09:47:50.988Z,3.77
2018-06-10T09:50:22.740Z,4.87
2018-06-10T09:52:53.743Z,4.87
2018-06-10T09:55:24.958Z,3.70
2018-06-10T09:57:56.108Z,3.23
2018-06-10T10:00:27.255Z,6.83
2018-06-10T10:02:58.497Z,4.50
2018-06-10T10:05:29.914Z,3.97
2018-06-10T10:08:01.568Z,4.83
2018-06-10T10:10:32.710Z,5.13
2018-06-10T10:13:04.116Z,3.00
2018-06-10T10:15:35.685Z,5.93
2018-06-10T10:18:07.068Z,6.13
2018-06-10T10:20:38.270Z,4.23
2018-06-10T10:23:09.600Z,10.57
2018-06-10T10:25:41.000Z,5.50
2018-06-10T10:28:12.635Z,3.43
2018-06-10T10:30:43.959Z,4.33
2018-06-10T10:33:15.174Z,4.40
2018-06-10T10:35:46.558Z,4.80
2018-06-10T10:38:17.977Z,6.57
2018-06-10T10:40:49.319Z,5.37
2018-06-10T10:43:20.700Z,5.57
2018-06-10T10:45:52.009Z,5.07
2018-06-10T10:48:23.123Z,4.97
2018-06-10T10:50:54.441Z,3.73
2018-06-10T10:53:25.657Z,5.53
2018-06-10T10:55:56.891Z,3.50
2018-06-10T10:58:28.269Z,3.77
2018-06-10T11:00:59.912Z,4.27
2018-06-10T11:03:31.219Z,3.50
2018-06-10T11:06:02.879Z,3.30
2018-06-10T11:08:34.207Z,4.90
2018-06-10T11:11:05.392Z,3.67
2018-06-10T11:13:36.761Z,3.97
2018-06-10T11:16:07.990Z,4.33
2018-06-10T11:18:39.150Z,2.73
2018-06-10T11:21:10.141Z,4.50
2018-06-10T11:23:41.334Z,4.67
2018-06-10T11:26:12.887Z,6.57
2018-06-10T11:28:44.115Z,3.53
2018-06-10T11:31:15.233Z,4.47
2018-06-10T11:33:45.823Z,6.47
2018-06-10T11:36:16.797Z,3.37
2018-06-10T11:38:48.100Z,6.03
2018-06-10T11:41:19.485Z,6.03
2018-06-10T11:43:50.831Z,4.20
2018-06-10T11:46:21.889Z,4.33
2018-06-10T11:48:53.275Z,5.03
2018-06-10T11:51:24.635Z,7.57
2018-06-10T11:53:55.640Z,4.20
2018-06-10T11:56:27.065Z,4.50
2018-06-10T11:58:58.417Z,5.50
2018-06-10T12:01:29.582Z,7.43
2018-06-10T12:04:00.808Z,13.67
2018-06-10T12:06:32.017Z,6.50
2018-06-10T12:09:03.532Z,4.63
2018-06-10T12:11:34.565Z,4.00
2018-06-10T12:14:05.761Z,5.87
2018-06-10T12:16:36.945Z,3.90
2018-06-10T12:19:08.350Z,4.07
2018-06-10T12:21:39.708Z,4.77
2018-06-10T12:24:10.744Z,7.17
2018-06-10T12:26:42.144Z,4.07
2018-06-10T12:29:13.819Z,3.93
2018-06-10T12:31:44.883Z,5.53
2018-06-10T12:34:16.102Z,7.80
2018-06-10T12:36:47.751Z,5.57
2018-06-10T12:39:19.289Z,6.60
2018-06-10T12:41:50.449Z,4.70
2018-06-10T12:44:20.974Z,5.03
2018-06-10T12:46:52.230Z,3.30
2018-06-10T12:49:23.411Z,5.27
2018-06-10T12:51:54.604Z,5.10
2018-06-10T12:54:25.971Z,4.83
2018-06-10T12:56:58.583Z,4.27
2018-06-10T12:59:30.210Z,4.33
2018-06-10T13:02:01.540Z,4.63
2018-06-10T13:04:34.181Z,4.20
2018-06-10T13:07:05.431Z,3.93
2018-06-10T13:09:36.881Z,6.93
2018-06-10T13:12:08.108Z,8.17
2018-06-10T13:14:39.512Z,6.10
2018-06-10T13:17:10.674Z,5.40
2018-06-10T13:19:41.812Z,3.90
2018-06-10T13:22:14.091Z,4.13
2018-06-10T13:24:46.152Z,3.60
2018-06-10T13:27:17.767Z,4.70
2018-06-10T13:29:49.452Z,4.60
2018-06-10T13:32:20.522Z,4.33
2018-06-10T13:34:51.535Z,3.27
2018-06-10T13:37:22.916Z,4.77
2018-06-10T13:39:53.927Z,4.03
2018-06-10T13:42:25.585Z,4.93
2018-06-10T13:44:56.727Z,5.50
2018-06-10T13:47:28.076Z,4.30
2018-06-10T13:49:59.115Z,4.03
2018-06-10T13:52:30.293Z,4.00
2018-06-10T13:55:02.508Z,5.70
2018-06-10T13:57:34.154Z,4.47
2018-06-10T14:00:05.651Z,5.17
2018-06-10T14:02:37.298Z,4.47
2018-06-10T14:05:08.372Z,4.60
2018-06-10T14:07:39.381Z,4.67
2018-06-10T14:10:10.627Z,3.93
2018-06-10T14:12:41.981Z,3.53
2018-06-10T14:15:13.647Z,4.73
2018-06-10T14:17:44.748Z,4.40
2018-06-10T14:20:15.925Z,3.80
2018-06-10T14:22:47.667Z,4.50
2018-06-10T14:25:19.408Z,4.30
2018-06-10T14:27:50.553Z,5.97
2018-06-10T14:30:21.700Z,3.87
2018-06-10T14:32:53.095Z,6.00
2018-06-10T14:35:24.448Z,6.00
2018-06-10T14:37:55.698Z,4.40
2018-06-10T14:40:26.891Z,4.83
2018-06-10T14:42:58.028Z,5.13
2018-06-10T14:45:29.214Z,6.80
2018-06-10T14:48:00.612Z,4.33
2018-06-10T14:50:32.677Z,4.30
2018-06-10T14:53:03.976Z,5.43
2018-06-10T14:55:36.992Z,4.27
2018-06-10T14:58:08.748Z,6.93
2018-06-10T15:00:40.176Z,5.17
2018-06-10T15:03:12.201Z,4.70
2018-06-10T15:05:42.925Z,9.57
2018-06-10T15:08:14.289Z,5.53
2018-06-10T15:10:45.907Z,5.70
2018-06-10T15:13:17.045Z,7.63
2018-06-10T15:15:48.220Z,8.77
2018-06-10T15:18:19.260Z,8.13
2018-06-10T15:20:50.478Z,9.80
2018-06-10T15:23:21.809Z,9.13
2018-06-10T15:25:52.900Z,8.83
2018-06-10T15:28:24.531Z,11.43
2018-06-10T15:30:56.060Z,16.07
2018-06-10T15:33:27.172Z,21.53
2018-06-10T15:35:58.557Z,17.67
2018-06-10T15:38:29.928Z,16.33
2018-06-10T15:41:01.627Z,33.27
2018-06-10T15:43:32.977Z,18.40
2018-06-10T15:46:04.308Z,37.73
2018-06-10T15:48:35.977Z,25.13
2018-06-10T15:51:07.267Z,24.57
2018-06-10T15:53:38.476Z,27.93
2018-06-10T15:56:09.841Z,27.53
2018-06-10T15:58:40.986Z,29.07
2018-06-10T16:01:12.252Z,40.43
2018-06-10T16:03:42.794Z,37.77
2018-06-10T16:06:14.033Z,29.47
2018-06-10T16:08:45.235Z,43.97
2018-06-10T16:11:16.600Z,34.60
2018-06-10T16:13:47.983Z,38.47
2018-06-10T16:16:19.023Z,37.27
2018-06-10T16:18:51.032Z,31.03
2018-06-10T16:21:22.348Z,24.97
2018-06-10T16:23:53.377Z,37.13
2018-06-10T16:26:24.759Z,45.27
2018-06-10T16:28:56.448Z,53.67
2018-06-10T16:31:27.712Z,52.27
2018-06-10T16:33:59.686Z,46.37
2018-06-10T16:36:31.091Z,44.73
2018-06-10T16:39:02.313Z,32.80
2018-06-10T16:41:33.449Z,38.03
2018-06-10T16:44:04.479Z,44.43
2018-06-10T16:46:35.856Z,34.50
2018-06-10T16:49:07.270Z,31.30
2018-06-10T16:51:38.434Z,59.87
2018-06-10T16:54:09.652Z,51.20
2018-06-10T16:56:41.191Z,40.23
2018-06-10T16:59:12.635Z,41.53
2018-06-10T17:01:44.692Z,41.00
2018-06-10T17:04:15.812Z,37.87
2018-06-10T17:06:47.791Z,21.63
2018-06-10T17:09:19.099Z,25.77
2018-06-10T17:11:50.365Z,29.73
2018-06-10T17:14:21.715Z,26.60
2018-06-10T17:16:53.376Z,24.47
2018-06-10T17:19:24.496Z,22.50
2018-06-10T17:21:56.150Z,24.30
2018-06-10T17:24:27.266Z,37.23
2018-06-10T17:26:58.608Z,27.40
2018-06-10T17:29:30.096Z,23.97
2018-06-10T17:32:01.405Z,37.57
2018-06-10T17:34:32.597Z,53.53
2018-06-10T17:37:04.016Z,39.43
2018-06-10T17:39:35.664Z,34.40
2018-06-10T17:42:06.784Z,26.17
2018-06-10T17:44:37.951Z,26.77
2018-06-10T17:47:09.720Z,36.00
2018-06-10T17:49:41.006Z,31.97
2018-06-10T17:52:12.147Z,27.77
2018-06-10T17:54:43.549Z,38.40
2018-06-10T17:57:14.727Z,32.73
2018-06-10T17:59:45.885Z,41.13
2018-06-10T18:02:16.886Z,29.43
2018-06-10T18:04:48.286Z,30.47
2018-06-10T18:07:19.931Z,25.10
2018-06-10T18:09:51.037Z,25.53
2018-06-10T18:12:22.217Z,15.37
2018-06-10T18:14:53.407Z,13.70
2018-06-10T18:17:24.616Z,14.97
2018-06-10T18:19:55.656Z,11.67
2018-06-10T18:22:26.859Z,18.73
2018-06-10T18:24:58.153Z,23.47
2018-06-10T18:27:29.393Z,12.63
2018-06-10T18:30:00.851Z,11.60
2018-06-10T18:32:32.160Z,15.13
2018-06-10T18:35:03.892Z,13.07
2018-06-10T18:37:35.344Z,21.40
2018-06-10T18:40:06.561Z,16.57
2018-06-10T18:42:37.908Z,19.07
2018-06-10T18:45:09.039Z,28.43
2018-06-10T18:47:40.510Z,18.77
2018-06-10T18:50:11.700Z,24.73
2018-06-10T18:52:43.084Z,15.93
2018-06-10T18:55:14.276Z,21.53
2018-06-10T18:57:45.684Z,21.97
2018-06-10T19:00:16.830Z,22.33
2018-06-10T19:02:47.818Z,27.80
2018-06-10T19:05:19.025Z,25.57
2018-06-10T19:07:50.206Z,28.77
2018-06-10T19:10:21.685Z,23.77
2018-06-10T19:12:52.773Z,21.90
2018-06-10T19:15:23.970Z,17.90
2018-06-10T19:17:55.161Z,7.20
2018-06-10T19:20:26.555Z,6.70
2018-06-10T19:22:57.740Z,6.00
2018-06-10T19:25:28.773Z,5.43
2018-06-10T19:28:00.136Z,8.37
2018-06-10T19:30:31.791Z,7.43
2018-06-10T19:33:03.125Z,9.07
2018-06-10T19:35:34.343Z,6.60
2018-06-10T19:38:06.204Z,7.97
2018-06-10T19:40:37.288Z,10.40
2018-06-10T19:43:08.540Z,6.63
2018-06-10T19:45:40.153Z,10.27
2018-06-10T19:48:11.295Z,6.87
2018-06-10T19:50:42.748Z,7.93
2018-06-10T19:53:13.828Z,7.33
2018-06-10T19:55:45.176Z,8.07
2018-06-10T19:58:16.391Z,5.90
2018-06-10T20:00:47.683Z,5.73
2018-06-10T20:03:18.984Z,9.73
2018-06-10T20:05:50.215Z,7.83
2018-06-10T20:08:21.564Z,6.80
2018-06-10T20:10:52.786Z,11.33
2018-06-10T20:13:24.177Z,6.07
2018-06-10T20:15:55.408Z,6.60
2018-06-10T20:18:26.544Z,9.83
2018-06-10T20:20:57.937Z,5.13
2018-06-10T20:23:29.299Z,8.23
2018-06-10T20:26:01.061Z,6.60
2018-06-10T20:28:32.575Z,9.03
2018-06-10T20:31:03.678Z,9.13
2018-06-10T20:33:35.029Z,6.33
2018-06-10T20:36:06.252Z,6.67
2018-06-10T20:38:37.672Z,7.40
2018-06-10T20:41:09.395Z,6.87
2018-06-10T20:43:40.399Z,8.30
2018-06-10T20:46:11.559Z,8.13
2018-06-10T20:48:42.618Z,10.47
2018-06-10T20:51:13.940Z,6.13
2018-06-10T20:53:45.151Z,8.37
2018-06-10T20:56:17.007Z,10.97
2018-06-10T20:58:48.255Z,9.00
2018-06-10T21:01:19.869Z,6.90
2018-06-10T21:03:50.991Z,7.87
2018-06-10T21:06:22.103Z,9.43
2018-06-10T21:08:53.306Z,10.50
2018-06-10T21:11:24.736Z,10.13
2018-06-10T21:13:56.718Z,7.20
2018-06-10T21:16:28.053Z,5.37
2018-06-10T21:18:59.406Z,6.13
2018-06-10T21:21:30.614Z,5.40
2018-06-10T21:24:01.597Z,2.50
2018-06-10T21:26:32.624Z,4.87
2018-06-10T21:29:03.813Z,2.37
2018-06-10T21:31:35.222Z,2.83
2018-06-10T21:34:06.573Z,4.70
2018-06-10T21:36:37.573Z,2.43
2018-06-10T21:39:10.513Z,2.97
2018-06-10T21:41:41.544Z,1.83
2018-06-10T21:44:12.955Z,1.50
2018-06-10T21:46:44.304Z,1.20
2018-06-10T21:49:15.300Z,4.40
2018-06-10T21:51:46.493Z,3.40
2018-06-10T21:54:17.878Z,1.73
2018-06-10T21:56:49.295Z,2.30
2018-06-10T21:59:20.459Z,2.00
2018-06-10T22:01:51.697Z,5.67
2018-06-10T22:04:23.088Z,4.37
2018-06-10T22:06:55.302Z,3.30
2018-06-10T22:09:26.860Z,2.60
2018-06-10T22:11:57.988Z,3.63
2018-06-10T22:14:29.208Z,2.03
2018-06-10T22:17:00.380Z,4.93
2018-06-10T22:19:31.746Z,1.57
2018-06-10T22:22:03.234Z,2.27
2018-06-10T22:24:34.372Z,1.83
2018-06-10T22:27:05.789Z,3.00
2018-06-10T22:29:36.924Z,4.40
2018-06-10T22:32:08.581Z,3.70
2018-06-10T22:34:40.146Z,2.03
2018-06-10T22:37:11.802Z,1.87
2018-06-10T22:39:43.908Z,1.87
2018-06-10T22:42:15.220Z,1.53
2018-06-10T22:44:46.401Z,2.23
2018-06-10T22:47:17.614Z,6.97
2018-06-10T22:49:48.855Z,2.60
2018-06-10T22:52:19.997Z,5.27
2018-06-10T22:54:51.163Z,2.57
2018-06-10T22:57:22.393Z,3.87
2018-06-10T22:59:53.776Z,4.70
2018-06-10T23:02:24.938Z,2.57
2018-06-10T23:04:55.964Z,4.60
2018-06-10T23:07:26.970Z,3.50
2018-06-10T23:09:58.169Z,3.93
2018-06-10T23:12:29.586Z,5.43
2018-06-10T23:15:00.751Z,3.50
2018-06-10T23:17:32.161Z,6.27
2018-06-10T23:20:03.550Z,7.07
2018-06-10T23:22:34.694Z,2.50
2018-06-10T23:25:06.007Z,3.57
2018-06-10T23:27:37.262Z,2.37
2018-06-10T23:30:08.502Z,5.57
2018-06-10T23:32:40.112Z,2.63
2018-06-10T23:35:11.440Z,2.23
2018-06-10T23:37:42.683Z,7.33
2018-06-10T23:40:13.901Z,3.30
2018-06-10T23:42:45.863Z,2.70
2018-06-10T23:45:17.155Z,4.70
2018-06-10T23:47:49.328Z,4.50
2018-06-10T23:50:20.356Z,5.33
2018-06-10T23:52:51.707Z,6.00
2018-06-10T23:55:22.919Z,7.03
2018-06-10T23:57:53.915Z,7.97
